Time;durP1;ratioP1;P1;durP2;ratioP2;P2;SDS_P1;SDS_P2;PMS_P1;PMS_P2;Temp;Humidity;BMP_temperature;BMP_pressure;BME280_temperature;BME280_humidity;BME280_pressure;Samples;Min_cycle;Max_cycle;Signal;HPM_P1;HPM_P2
2021/10/09 00:00:16;;;;;;;3.20;0.93;;;;;;;;;;6256219;23;20020;-82
2021/10/09 00:03:20;;;;;;;3.10;1.10;;;;;;;;;;6256320;23;20020;-81
2021/10/09 00:06:24;;;;;;;3.30;1.05;;;;;;;;;;6256608;23;20008;-81
2021/10/09 00:09:29;;;;;;;1.73;0.90;;;;;;;;;;6256603;23;20016;-81
2021/10/09 00:12:34;;;;;;;1.30;0.90;;;;;;;;;;6256155;23;20012;-82
2021/10/09 00:15:38;;;;;;;1.92;0.93;;;;;;;;;;6237921;23;20016;-82
2021/10/09 00:18:43;;;;;;;1.27;0.90;;;;;;;;;;6223095;23;20012;-81
2021/10/09 00:21:48;;;;;;;1.58;1.17;;;;;;;;;;6220852;23;20472;-81
2021/10/09 00:24:52;;;;;;;2.05;1.08;;;;;;;;;;6253467;23;20016;-82
2021/10/09 00:27:56;;;;;;;1.20;0.90;;;;;;;;;;6256667;23;20012;-81
2021/10/09 00:31:01;;;;;;;1.23;1.10;;;;;;;;;;6256347;23;20008;-81
2021/10/09 00:34:05;;;;;;;1.05;0.95;;;;;;;;;;6255893;23;20012;-81
2021/10/09 00:37:10;;;;;;;1.48;1.23;;;;;;;;;;6255711;23;20012;-81
2021/10/09 00:40:14;;;;;;;1.58;1.20;;;;;;;;;;6230727;23;20020;-82
2021/10/09 00:43:19;;;;;;;3.67;1.10;;;;;;;;;;6255496;23;20008;-81
2021/10/09 00:46:23;;;;;;;1.10;1.00;;;;;;;;;;6220369;23;20012;-81
2021/10/09 00:49:28;;;;;;;2.65;1.55;;;;;;;;;;6256059;23;20012;-81
2021/10/09 00:52:34;;;;;;;4.72;1.50;;;;;;;;;;6236755;23;20012;-81
2021/10/09 00:55:39;;;;;;;2.50;1.52;;;;;;;;;;6256194;23;20012;-84
2021/10/09 00:58:45;;;;;;;2.40;1.60;;;;;;;;;;6238159;23;20012;-83
2021/10/09 01:01:51;;;;;;;2.25;1.75;;;;;;;;;;6256327;23;20028;-81
2021/10/09 01:04:56;;;;;;;2.80;1.90;;;;;;;;;;6237740;23;20008;-81
2021/10/09 01:08:00;;;;;;;3.40;1.63;;;;;;;;;;6256481;23;20020;-81
2021/10/09 01:11:05;;;;;;;2.03;1.83;;;;;;;;;;6237075;23;20008;-81
2021/10/09 01:14:10;;;;;;;2.92;1.70;;;;;;;;;;6237124;23;20443;-82
2021/10/09 01:17:15;;;;;;;2.30;2.08;;;;;;;;;;6236790;23;20012;-81
2021/10/09 01:20:20;;;;;;;3.28;2.30;;;;;;;;;;6236761;23;20024;-81
2021/10/09 01:23:26;;;;;;;2.40;2.20;;;;;;;;;;6236556;23;20008;-82
2021/10/09 01:26:33;;;;;;;3.22;2.10;;;;;;;;;;6227204;23;20016;-83
2021/10/09 01:29:40;;;;;;;1.85;1.75;;;;;;;;;;6237436;23;20060;-83
2021/10/09 01:32:45;;;;;;;2.92;1.88;;;;;;;;;;6219573;23;20009;-81
2021/10/09 01:35:51;;;;;;;2.70;2.00;;;;;;;;;;6255216;23;20016;-81
2021/10/09 01:38:58;;;;;;;3.05;1.98;;;;;;;;;;6235367;23;20008;-81
2021/10/09 01:42:11;;;;;;;2.47;2.10;;;;;;;;;;6236562;23;20028;-83
2021/10/09 01:45:15;;;;;;;4.95;2.08;;;;;;;;;;6236532;23;20008;-83
2021/10/09 01:48:28;;;;;;;2.97;1.80;;;;;;;;;;6255563;23;20436;-83
2021/10/09 01:51:33;;;;;;;3.97;2.08;;;;;;;;;;6236663;23;20012;-84
2021/10/09 01:54:38;;;;;;;2.55;1.80;;;;;;;;;;6219113;23;20016;-85
2021/10/09 01:57:43;;;;;;;5.07;2.10;;;;;;;;;;6236065;23;20004;-81
2021/10/09 02:00:48;;;;;;;2.97;2.20;;;;;;;;;;6236303;23;20024;-83
2021/10/09 02:03:53;;;;;;;1.90;1.70;;;;;;;;;;6236040;23;20012;-84
2021/10/09 02:06:58;;;;;;;1.80;1.38;;;;;;;;;;6236448;23;20008;-82
2021/10/09 02:10:06;;;;;;;1.98;1.50;;;;;;;;;;6254937;23;20016;-82
2021/10/09 02:13:13;;;;;;;1.88;1.60;;;;;;;;;;6218700;23;20012;-84
2021/10/09 02:26:14;;;;;;;3.33;2.13;;;;;;;;;;6245622;23;20016;-82
2021/10/09 02:29:20;;;;;;;1.95;1.75;;;;;;;;;;6235728;23;20020;-83
2021/10/09 02:32:26;;;;;;;5.90;2.08;;;;;;;;;;6236150;23;20436;-82
2021/10/09 02:35:31;;;;;;;3.17;2.40;;;;;;;;;;6236858;23;20016;-82
2021/10/09 02:38:36;;;;;;;3.67;1.77;;;;;;;;;;6236120;23;20012;-82
2021/10/09 02:41:41;;;;;;;3.75;2.40;;;;;;;;;;6236146;23;20020;-82
2021/10/09 02:44:46;;;;;;;2.97;1.80;;;;;;;;;;6254592;23;20012;-82
2021/10/09 02:47:50;;;;;;;5.13;2.40;;;;;;;;;;6236073;23;20329;-83
2021/10/09 02:50:54;;;;;;;4.68;2.35;;;;;;;;;;6236321;23;20008;-81
2021/10/09 02:54:01;;;;;;;4.72;2.13;;;;;;;;;;6236045;23;20023;-82
2021/10/09 02:57:05;;;;;;;5.05;2.13;;;;;;;;;;6254503;23;20313;-81
2021/10/09 03:00:10;;;;;;;4.78;2.38;;;;;;;;;;6218408;23;20020;-82
2021/10/09 03:03:14;;;;;;;6.55;2.10;;;;;;;;;;6235513;23;20008;-81
2021/10/09 03:06:19;;;;;;;3.65;2.20;;;;;;;;;;6218298;23;20012;-82
2021/10/09 03:09:23;;;;;;;4.80;2.50;;;;;;;;;;6235378;23;20326;-82
2021/10/09 03:12:28;;;;;;;3.20;2.05;;;;;;;;;;6253942;23;20012;-81
2021/10/09 03:15:33;;;;;;;5.55;2.38;;;;;;;;;;6217848;23;20012;-80
2021/10/09 03:18:37;;;;;;;7.70;2.33;;;;;;;;;;6235473;23;20016;-80
2021/10/09 03:21:43;;;;;;;5.28;2.45;;;;;;;;;;6235356;23;20020;-81
2021/10/09 03:24:47;;;;;;;4.03;2.05;;;;;;;;;;6215314;23;20456;-81
2021/10/09 03:27:54;;;;;;;3.78;2.28;;;;;;;;;;6235741;23;20012;-81
2021/10/09 03:31:02;;;;;;;4.18;2.05;;;;;;;;;;6236010;23;20008;-81
2021/10/09 03:34:10;;;;;;;3.30;2.05;;;;;;;;;;6250264;23;20016;-81
2021/10/09 03:37:18;;;;;;;4.28;2.00;;;;;;;;;;6257941;23;20008;-80
2021/10/09 03:40:24;;;;;;;2.65;1.92;;;;;;;;;;6231746;23;20012;-82
2021/10/09 03:43:29;;;;;;;4.82;2.25;;;;;;;;;;6255478;23;20012;-79
2021/10/09 03:46:42;;;;;;;5.47;2.08;;;;;;;;;;6251974;23;20009;-80
2021/10/09 03:49:54;;;;;;;4.72;2.03;;;;;;;;;;6260170;23;20016;-81
2021/10/09 03:52:59;;;;;;;3.58;2.00;;;;;;;;;;6240890;23;20012;-81
2021/10/09 03:56:04;;;;;;;5.32;2.72;;;;;;;;;;6243949;23;20012;-81
2021/10/09 03:59:15;;;;;;;5.43;1.88;;;;;;;;;;6244018;23;20008;-82
2021/10/09 04:02:22;;;;;;;4.07;2.00;;;;;;;;;;6238192;23;20020;-80
2021/10/09 04:05:27;;;;;;;3.53;1.98;;;;;;;;;;6235998;23;20012;-81
2021/10/09 04:08:32;;;;;;;4.30;2.03;;;;;;;;;;6237694;23;20012;-81
2021/10/09 04:11:37;;;;;;;5.30;1.75;;;;;;;;;;6237569;23;20012;-80
2021/10/09 04:14:42;;;;;;;4.05;1.98;;;;;;;;;;6219767;23;20016;-81
2021/10/09 04:17:46;;;;;;;5.25;2.00;;;;;;;;;;6255600;23;20008;-82
2021/10/09 04:20:52;;;;;;;4.70;1.80;;;;;;;;;;6235035;23;20024;-81
2021/10/09 04:23:56;;;;;;;3.72;1.95;;;;;;;;;;6235156;23;20012;-81
2021/10/09 04:27:02;;;;;;;5.15;2.00;;;;;;;;;;6237045;23;20024;-81
2021/10/09 04:30:07;;;;;;;3.60;1.92;;;;;;;;;;6238018;23;20322;-81
2021/10/09 04:33:12;;;;;;;4.85;1.85;;;;;;;;;;6255678;23;20012;-82
2021/10/09 04:36:17;;;;;;;4.03;1.80;;;;;;;;;;6237449;23;20448;-83
2021/10/09 04:39:21;;;;;;;4.45;1.90;;;;;;;;;;6252777;23;20012;-81
2021/10/09 04:42:26;;;;;;;4.93;2.35;;;;;;;;;;6237199;23;20444;-80
2021/10/09 04:45:31;;;;;;;4.45;1.90;;;;;;;;;;6236618;23;20012;-81
2021/10/09 04:48:37;;;;;;;4.53;1.88;;;;;;;;;;6236829;23;20008;-78
2021/10/09 04:51:41;;;;;;;4.97;2.00;;;;;;;;;;6236446;23;20012;-80
2021/10/09 04:54:45;;;;;;;2.80;1.92;;;;;;;;;;6236186;23;20012;-81
2021/10/09 04:57:53;;;;;;;6.85;2.15;;;;;;;;;;6236325;23;20008;-80
2021/10/09 05:00:57;;;;;;;6.15;1.92;;;;;;;;;;6236143;23;20020;-81
2021/10/09 05:04:02;;;;;;;4.68;2.33;;;;;;;;;;6254761;23;20008;-81
2021/10/09 05:07:09;;;;;;;6.53;2.00;;;;;;;;;;6236163;23;20016;-81
2021/10/09 05:10:13;;;;;;;6.97;2.42;;;;;;;;;;6254855;23;20016;-81
2021/10/09 05:13:18;;;;;;;7.13;2.40;;;;;;;;;;6236067;23;20008;-81
2021/10/09 05:16:26;;;;;;;8.38;2.95;;;;;;;;;;6219024;23;20016;-81
2021/10/09 05:19:30;;;;;;;5.03;3.03;;;;;;;;;;6236133;23;20012;-79
2021/10/09 05:22:35;;;;;;;9.20;3.38;;;;;;;;;;6235663;23;20024;-81
2021/10/09 05:25:41;;;;;;;9.82;2.70;;;;;;;;;;6247467;23;20020;-81
2021/10/09 05:28:49;;;;;;;6.07;2.90;;;;;;;;;;6236068;23;20012;-81
2021/10/09 05:32:06;;;;;;;5.30;2.17;;;;;;;;;;6218589;23;20302;-80
2021/10/09 05:35:11;;;;;;;4.55;2.08;;;;;;;;;;6236785;23;20413;-81
2021/10/09 05:38:16;;;;;;;3.08;1.90;;;;;;;;;;6236244;23;20012;-81
2021/10/09 05:41:22;;;;;;;4.15;1.65;;;;;;;;;;6235563;23;20024;-82
2021/10/09 05:44:33;;;;;;;2.95;1.70;;;;;;;;;;6235945;23;20008;-69
2021/10/09 05:47:38;;;;;;;4.35;1.75;;;;;;;;;;6235635;23;20325;-69
2021/10/09 06:00:38;;;;;;;2.83;1.88;;;;;;;;;;6235368;23;20016;-70
2021/10/09 06:50:54;;;;;;;4.95;1.40;;;;;;;;;;6234483;23;20337;-71
2021/10/09 07:00:43;;;;;;;2.40;1.45;;;;;;;;;;6234801;23;20016;-71
2021/10/09 07:03:48;;;;;;;5.90;2.15;;;;;;;;;;6235269;23;20334;-70
2021/10/09 07:06:55;;;;;;;11.07;1.20;;;;;;;;;;6235003;23;20008;-69
2021/10/09 07:10:13;;;;;;;2.67;1.33;;;;;;;;;;6234807;23;20019;-69
2021/10/09 07:13:17;;;;;;;7.57;1.50;;;;;;;;;;6235306;23;20012;-70
2021/10/09 07:16:22;;;;;;;5.93;1.10;;;;;;;;;;6253789;23;20012;-72
2021/10/09 07:19:45;;;;;;;4.90;1.17;;;;;;;;;;6235492;23;20012;-73
2021/10/09 07:22:50;;;;;;;3.55;1.10;;;;;;;;;;6253582;23;20023;-69
2021/10/09 07:25:55;;;;;;;3.30;1.10;;;;;;;;;;6228127;23;20024;-70
2021/10/09 07:28:59;;;;;;;4.05;1.30;;;;;;;;;;6234492;23;20012;-69
2021/10/09 07:32:04;;;;;;;5.38;1.38;;;;;;;;;;6233938;23;20020;-69
2021/10/09 07:35:08;;;;;;;2.72;0.98;;;;;;;;;;6252631;23;20008;-69
2021/10/09 07:38:14;;;;;;;3.78;1.10;;;;;;;;;;6252719;23;20016;-68
2021/10/09 07:41:19;;;;;;;4.32;1.20;;;;;;;;;;6253040;23;20020;-69
2021/10/09 07:44:24;;;;;;;2.67;1.13;;;;;;;;;;6217675;23;20012;-70
2021/10/09 07:47:28;;;;;;;7.22;1.15;;;;;;;;;;6234994;23;20016;-67
2021/10/09 07:50:32;;;;;;;4.60;1.30;;;;;;;;;;6253266;23;20012;-72
2021/10/09 07:53:36;;;;;;;4.05;1.25;;;;;;;;;;6253368;23;20008;-71
2021/10/09 07:56:43;;;;;;;1.75;1.10;;;;;;;;;;6253466;23;20016;-73
2021/10/09 07:59:51;;;;;;;3.60;1.20;;;;;;;;;;6253461;23;20012;-71
2021/10/09 08:02:55;;;;;;;4.55;1.40;;;;;;;;;;6255442;23;20024;-70
2021/10/09 08:06:00;;;;;;;6.57;1.35;;;;;;;;;;6255258;23;20012;-70
2021/10/09 08:09:04;;;;;;;2.85;1.55;;;;;;;;;;6255526;23;20012;-73
2021/10/09 08:12:08;;;;;;;5.85;1.60;;;;;;;;;;6256195;23;20008;-72
2021/10/09 08:15:13;;;;;;;5.32;1.30;;;;;;;;;;6255471;23;20012;-72
2021/10/09 08:18:17;;;;;;;3.85;1.40;;;;;;;;;;6236847;23;20455;-78
2021/10/09 08:21:25;;;;;;;3.67;1.30;;;;;;;;;;6254937;23;20043;-73
2021/10/09 08:24:42;;;;;;;5.03;2.22;;;;;;;;;;6254379;23;20437;-75
2021/10/09 08:41:17;;;;;;;5.22;2.13;;;;;;;;;;6255228;23;20024;-73
2021/10/09 08:44:21;;;;;;;3.22;1.40;;;;;;;;;;6255039;23;20012;-71
2021/10/09 08:47:26;;;;;;;2.22;1.70;;;;;;;;;;6254946;23;20012;-71
2021/10/09 08:50:30;;;;;;;2.92;1.58;;;;;;;;;;6254774;23;20119;-71
2021/10/09 08:53:39;;;;;;;8.10;1.90;;;;;;;;;;6254968;23;20016;-70
2021/10/09 08:56:46;;;;;;;7.18;1.90;;;;;;;;;;6254791;23;20012;-70
2021/10/09 08:59:54;;;;;;;4.70;1.80;;;;;;;;;;6254674;23;20012;-72
2021/10/09 09:03:09;;;;;;;12.48;6.57;;;;;;;;;;6255069;23;20020;-75
2021/10/09 09:06:25;;;;;;;4.13;1.77;;;;;;;;;;6254622;23;20451;-73
2021/10/09 09:32:54;;;;;;;4.90;2.10;;;;;;;;;;6254605;23;20012;-67
2021/10/09 09:39:09;;;;;;;7.50;2.13;;;;;;;;;;6248918;23;20008;-70
2021/10/09 09:42:23;;;;;;;6.45;2.00;;;;;;;;;;6254284;23;20456;-70
2021/10/09 09:45:29;;;;;;;5.55;2.50;;;;;;;;;;6235989;23;20008;-75
2021/10/09 09:48:38;;;;;;;3.92;2.10;;;;;;;;;;6235685;23;20012;-69
2021/10/09 09:51:42;;;;;;;8.45;2.60;;;;;;;;;;6254034;23;20013;-73
2021/10/09 09:54:47;;;;;;;4.32;2.25;;;;;;;;;;6254196;23;20012;-74
2021/10/09 09:57:52;;;;;;;5.25;2.72;;;;;;;;;;6254556;23;20008;-75
2021/10/09 10:00:57;;;;;;;9.43;2.65;;;;;;;;;;6254134;23;20020;-74
2021/10/09 10:04:02;;;;;;;6.60;2.42;;;;;;;;;;6253991;23;20016;-72
2021/10/09 10:07:06;;;;;;;3.60;2.05;;;;;;;;;;6252652;23;20012;-72
2021/10/09 10:10:10;;;;;;;5.10;2.20;;;;;;;;;;6254078;23;20016;-72
2021/10/09 10:13:16;;;;;;;4.82;2.50;;;;;;;;;;6254165;23;20016;-72
2021/10/09 10:16:20;;;;;;;3.72;2.33;;;;;;;;;;6253849;23;20025;-72
2021/10/09 10:19:43;;;;;;;9.73;2.58;;;;;;;;;;6254212;23;20357;-72
2021/10/09 10:22:50;;;;;;;10.02;2.70;;;;;;;;;;6254081;23;20313;-72
2021/10/09 10:26:14;;;;;;;6.72;2.42;;;;;;;;;;6246948;23;20122;-72
2021/10/09 10:29:19;;;;;;;5.97;2.47;;;;;;;;;;6254289;23;20437;-72
2021/10/09 10:32:24;;;;;;;4.95;2.78;;;;;;;;;;6254079;23;20016;-72
2021/10/09 10:35:31;;;;;;;10.10;2.78;;;;;;;;;;6254247;23;20012;-72
2021/10/09 10:38:46;;;;;;;4.63;2.88;;;;;;;;;;6214178;23;20015;-72
2021/10/09 10:42:02;;;;;;;4.10;2.35;;;;;;;;;;6252974;23;20027;-71
2021/10/09 10:45:12;;;;;;;4.82;2.50;;;;;;;;;;6252671;23;20012;-72
2021/10/09 10:48:37;;;;;;;8.77;2.67;;;;;;;;;;6253638;23;20012;-74
2021/10/09 10:51:45;;;;;;;5.15;2.45;;;;;;;;;;6252904;23;20020;-72
2021/10/09 10:55:02;;;;;;;4.95;2.72;;;;;;;;;;6253794;23;20640;-72
2021/10/09 10:58:25;;;;;;;7.75;2.97;;;;;;;;;;6253873;23;20012;-74
2021/10/09 11:01:34;;;;;;;6.15;3.20;;;;;;;;;;6235150;23;20325;-73
2021/10/09 11:04:45;;;;;;;5.72;2.50;;;;;;;;;;6253916;23;20012;-72
2021/10/09 11:07:51;;;;;;;;;;;;;;;;;;6254094;23;20020;-72
2021/10/09 11:10:56;;;;;;;5.25;2.80;;;;;;;;;;6253572;23;20327;-71
2021/10/09 11:14:00;;;;;;;6.85;2.58;;;;;;;;;;6253953;23;20440;-71
2021/10/09 11:17:05;;;;;;;5.45;3.03;;;;;;;;;;6253586;23;20016;-72
2021/10/09 11:20:10;;;;;;;5.35;2.60;;;;;;;;;;6253709;23;20043;-73
2021/10/09 11:23:15;;;;;;;5.70;2.83;;;;;;;;;;6235027;23;20024;-71
2021/10/09 11:26:19;;;;;;;3.58;2.42;;;;;;;;;;6245085;23;20017;-71
2021/10/09 11:29:24;;;;;;;7.35;2.30;;;;;;;;;;6253093;23;20424;-71
2021/10/09 11:32:35;;;;;;;5.38;2.45;;;;;;;;;;6253068;23;20328;-71
2021/10/09 11:35:41;;;;;;;8.43;2.92;;;;;;;;;;6252121;23;20471;-72
2021/10/09 11:38:46;;;;;;;7.10;2.78;;;;;;;;;;6246056;23;20012;-73
2021/10/09 11:42:13;;;;;;;8.02;2.72;;;;;;;;;;6236144;23;20024;-72
2021/10/09 11:55:30;;;;;;;3.40;2.20;;;;;;;;;;6176171;23;20023;-71
2021/10/09 11:59:04;;;;;;;3.85;2.50;;;;;;;;;;6237851;23;20012;-72
2021/10/09 12:02:08;;;;;;;5.25;2.75;;;;;;;;;;6255928;23;20445;-73
2021/10/09 12:05:12;;;;;;;6.72;2.70;;;;;;;;;;6256073;23;20012;-72
2021/10/09 12:08:30;;;;;;;5.63;2.35;;;;;;;;;;6256058;23;20016;-72
2021/10/09 12:11:34;;;;;;;7.10;2.63;;;;;;;;;;6255938;23;20016;-72
2021/10/09 12:14:38;;;;;;;8.27;2.42;;;;;;;;;;6255888;23;20008;-73
2021/10/09 12:17:44;;;;;;;4.30;2.53;;;;;;;;;;6255817;23;20313;-73
2021/10/09 12:20:48;;;;;;;4.60;2.00;;;;;;;;;;6255649;23;20012;-73
2021/10/09 12:23:53;;;;;;;3.88;2.17;;;;;;;;;;6255746;23;20197;-72
2021/10/09 12:27:02;;;;;;;5.53;2.33;;;;;;;;;;6225153;23;20020;-72
2021/10/09 12:30:12;;;;;;;4.40;2.15;;;;;;;;;;6225134;23;20012;-72
2021/10/09 12:33:38;;;;;;;3.92;2.00;;;;;;;;;;6225144;23;20444;-72
2021/10/09 12:36:42;;;;;;;4.47;2.05;;;;;;;;;;6224340;23;20017;-74
2021/10/09 12:39:47;;;;;;;6.35;2.00;;;;;;;;;;6224855;23;20013;-73
2021/10/09 12:42:53;;;;;;;5.53;1.98;;;;;;;;;;6224639;23;20020;-71
2021/10/09 12:45:57;;;;;;;5.25;2.35;;;;;;;;;;6224768;23;20009;-73
2021/10/09 12:49:01;;;;;;;3.92;2.15;;;;;;;;;;6224798;23;20013;-72
2021/10/09 12:52:06;;;;;;;7.05;3.15;;;;;;;;;;6224520;23;20009;-72
2021/10/09 12:55:10;;;;;;;5.95;2.20;;;;;;;;;;6224716;23;20201;-72
2021/10/09 12:58:14;;;;;;;5.75;2.20;;;;;;;;;;6224621;23;20008;-71
2021/10/09 13:01:19;;;;;;;5.28;1.98;;;;;;;;;;6224480;23;20021;-71
2021/10/09 13:04:23;;;;;;;4.97;2.10;;;;;;;;;;6223740;23;20012;-72
2021/10/09 13:07:28;;;;;;;7.68;2.58;;;;;;;;;;6224446;23;20008;-72
2021/10/09 13:10:37;;;;;;;4.57;2.03;;;;;;;;;;6224323;23;20016;-71
2021/10/09 13:13:45;;;;;;;8.00;2.20;;;;;;;;;;6224581;23;20016;-73
2021/10/09 13:16:49;;;;;;;5.25;2.00;;;;;;;;;;6224223;23;20012;-73
2021/10/09 13:19:54;;;;;;;3.92;1.80;;;;;;;;;;6224394;23;20012;-73
2021/10/09 13:22:59;;;;;;;7.38;1.92;;;;;;;;;;6224170;23;20024;-72
2021/10/09 13:26:04;;;;;;;3.65;2.05;;;;;;;;;;6239146;23;20290;-72
2021/10/09 13:29:08;;;;;;;4.05;1.92;;;;;;;;;;6254735;23;20016;-72
2021/10/09 13:32:12;;;;;;;4.38;1.85;;;;;;;;;;6257657;23;20432;-72
2021/10/09 13:35:17;;;;;;;5.60;2.10;;;;;;;;;;6254632;23;20016;-72
2021/10/09 13:38:21;;;;;;;6.55;2.05;;;;;;;;;;6227627;23;20012;-72
2021/10/09 13:41:26;;;;;;;4.07;1.70;;;;;;;;;;6254241;23;20326;-71
2021/10/09 13:44:31;;;;;;;4.30;1.80;;;;;;;;;;6254776;23;20015;-71
2021/10/09 13:47:36;;;;;;;5.03;2.17;;;;;;;;;;6254756;23;20012;-71
2021/10/09 13:50:45;;;;;;;4.63;1.80;;;;;;;;;;6254347;23;20020;-71
2021/10/09 13:53:49;;;;;;;4.30;1.77;;;;;;;;;;6254734;23;20012;-71
2021/10/09 13:56:53;;;;;;;4.60;2.03;;;;;;;;;;6254640;23;20004;-72
2021/10/09 13:59:57;;;;;;;7.03;2.00;;;;;;;;;;6254140;23;20016;-71
2021/10/09 14:03:02;;;;;;;2.53;1.90;;;;;;;;;;6254657;23;20019;-72
2021/10/09 14:06:07;;;;;;;3.83;1.77;;;;;;;;;;6236123;23;20008;-71
2021/10/09 14:09:11;;;;;;;5.95;1.95;;;;;;;;;;6254549;23;20012;-71
2021/10/09 14:12:15;;;;;;;3.47;1.90;;;;;;;;;;6254410;23;20012;-71
2021/10/09 14:15:20;;;;;;;3.20;1.80;;;;;;;;;;6236033;23;20012;-71
2021/10/09 14:18:25;;;;;;;4.80;1.80;;;;;;;;;;6254423;23;20008;-71
2021/10/09 14:21:30;;;;;;;4.40;2.40;;;;;;;;;;6253684;23;20507;-71
2021/10/09 14:24:34;;;;;;;3.55;1.98;;;;;;;;;;6252359;23;20305;-71
2021/10/09 14:27:39;;;;;;;2.85;1.77;;;;;;;;;;6253574;23;20008;-71
2021/10/09 14:30:45;;;;;;;6.72;2.08;;;;;;;;;;6253518;23;20012;-71
2021/10/09 14:33:49;;;;;;;3.22;1.83;;;;;;;;;;6253840;23;20012;-71
2021/10/09 14:36:54;;;;;;;2.92;1.80;;;;;;;;;;6250194;23;20008;-71
2021/10/09 14:39:58;;;;;;;6.65;1.92;;;;;;;;;;6253470;23;20489;-71
2021/10/09 14:43:03;;;;;;;4.47;2.10;;;;;;;;;;6252620;23;20020;-71
2021/10/09 14:53:16;;;;;;;6.05;2.05;;;;;;;;;;6220132;23;20016;-72
2021/10/09 15:19:48;;;;;;;2.92;1.88;;;;;;;;;;6253032;23;20016;-72
2021/10/09 15:22:52;;;;;;;3.92;1.70;;;;;;;;;;6253168;23;20020;-72
2021/10/09 15:25:56;;;;;;;5.93;2.75;;;;;;;;;;6246426;23;20016;-72
2021/10/09 15:29:01;;;;;;;3.45;1.80;;;;;;;;;;6253094;23;20020;-72
2021/10/09 15:32:05;;;;;;;7.13;1.90;;;;;;;;;;6253101;23;20012;-72
2021/10/09 15:35:09;;;;;;;2.63;1.70;;;;;;;;;;6253340;23;20012;-73
2021/10/09 15:38:13;;;;;;;6.93;1.90;;;;;;;;;;6243881;23;20016;-72
2021/10/09 15:41:18;;;;;;;6.50;2.17;;;;;;;;;;6253135;23;20436;-73
2021/10/09 15:44:22;;;;;;;9.45;1.92;;;;;;;;;;6253313;23;20416;-71
2021/10/09 15:47:27;;;;;;;9.25;1.90;;;;;;;;;;6253197;23;20004;-72
2021/10/09 15:50:32;;;;;;;8.23;2.55;;;;;;;;;;6253268;23;20016;-72
2021/10/09 15:53:36;;;;;;;9.23;2.10;;;;;;;;;;6253319;23;20362;-72
2021/10/09 15:56:40;;;;;;;4.15;1.80;;;;;;;;;;6234826;23;20448;-72
2021/10/09 15:59:44;;;;;;;6.82;1.65;;;;;;;;;;6237935;23;20012;-73
2021/10/09 16:02:49;;;;;;;3.00;1.55;;;;;;;;;;6253815;23;20024;-72
2021/10/09 16:05:53;;;;;;;6.57;1.70;;;;;;;;;;6256466;23;20008;-73
2021/10/09 16:08:58;;;;;;;4.40;1.58;;;;;;;;;;6262113;23;20012;-73
2021/10/09 16:12:02;;;;;;;5.47;1.65;;;;;;;;;;6262441;23;20009;-73
2021/10/09 16:15:07;;;;;;;4.78;1.20;;;;;;;;;;6263511;23;20012;-73
2021/10/09 16:18:12;;;;;;;4.63;1.98;;;;;;;;;;6261573;23;20012;-71
2021/10/09 16:21:17;;;;;;;3.97;1.58;;;;;;;;;;6253536;23;20012;-72
2021/10/09 16:24:21;;;;;;;5.40;1.98;;;;;;;;;;6255694;23;20020;-71
2021/10/09 16:27:25;;;;;;;3.88;2.20;;;;;;;;;;6256168;23;20020;-72
2021/10/09 16:30:30;;;;;;;5.45;1.95;;;;;;;;;;6255130;23;20016;-72
2021/10/09 16:33:34;;;;;;;3.53;1.60;;;;;;;;;;6236565;23;20008;-72
2021/10/09 16:36:39;;;;;;;5.05;2.22;;;;;;;;;;6251636;23;20016;-71
2021/10/09 16:39:43;;;;;;;5.60;1.98;;;;;;;;;;6254811;23;20008;-71
2021/10/09 16:42:48;;;;;;;3.60;1.35;;;;;;;;;;6254895;23;20027;-71
2021/10/09 16:45:52;;;;;;;3.78;1.77;;;;;;;;;;6255601;23;20008;-71
2021/10/09 16:48:56;;;;;;;5.85;1.40;;;;;;;;;;6236491;23;20008;-71
2021/10/09 16:52:01;;;;;;;5.22;1.60;;;;;;;;;;6254956;23;20020;-72
2021/10/09 16:55:06;;;;;;;3.17;1.42;;;;;;;;;;6255343;23;20005;-72
2021/10/09 16:58:10;;;;;;;4.50;1.50;;;;;;;;;;6255163;23;20012;-74
2021/10/09 17:01:14;;;;;;;5.18;1.90;;;;;;;;;;6254753;23;20012;-72
2021/10/09 17:04:21;;;;;;;5.55;1.80;;;;;;;;;;6254787;23;20024;-72
2021/10/09 17:07:26;;;;;;;3.72;1.73;;;;;;;;;;6250535;23;20012;-72
2021/10/09 17:10:30;;;;;;;5.75;2.10;;;;;;;;;;6254242;23;20020;-72
2021/10/09 17:13:35;;;;;;;3.70;1.65;;;;;;;;;;6254185;23;20016;-72
2021/10/09 17:16:40;;;;;;;3.10;1.80;;;;;;;;;;6254066;23;20008;-72
2021/10/09 17:19:44;;;;;;;3.08;2.10;;;;;;;;;;6253871;23;20123;-73
2021/10/09 17:22:48;;;;;;;6.55;2.63;;;;;;;;;;6253967;23;20020;-72
2021/10/09 17:25:56;;;;;;;7.38;1.80;;;;;;;;;;6246756;23;20020;-73
2021/10/09 17:29:00;;;;;;;6.45;2.13;;;;;;;;;;6252609;23;20020;-72
2021/10/09 17:32:05;;;;;;;6.47;2.33;;;;;;;;;;6253123;23;20016;-72
2021/10/09 17:35:09;;;;;;;4.47;1.98;;;;;;;;;;6234933;23;20325;-72
2021/10/09 17:38:13;;;;;;;6.88;2.20;;;;;;;;;;6254114;23;20012;-73
2021/10/09 17:41:20;;;;;;;7.40;1.60;;;;;;;;;;6253875;23;20012;-73
2021/10/09 17:44:24;;;;;;;3.72;1.40;;;;;;;;;;6253905;23;20024;-73
2021/10/09 17:47:29;;;;;;;8.07;1.92;;;;;;;;;;6254284;23;20012;-73
2021/10/09 17:50:36;;;;;;;5.75;2.00;;;;;;;;;;6253846;23;20012;-73
2021/10/09 17:53:41;;;;;;;4.38;1.67;;;;;;;;;;6217960;23;20008;-72
2021/10/09 17:56:45;;;;;;;5.18;1.67;;;;;;;;;;6253741;23;20012;-73
2021/10/09 17:59:49;;;;;;;7.75;2.55;;;;;;;;;;6234499;23;20008;-73
2021/10/09 18:02:54;;;;;;;4.50;1.75;;;;;;;;;;6253569;23;20020;-72
2021/10/09 18:05:59;;;;;;;10.00;2.50;;;;;;;;;;6253521;23;20416;-73
2021/10/09 18:09:07;;;;;;;15.25;4.80;;;;;;;;;;6253183;23;20075;-73
2021/10/09 18:12:11;;;;;;;6.25;2.20;;;;;;;;;;6253726;23;20035;-73
2021/10/09 18:15:16;;;;;;;3.28;1.55;;;;;;;;;;6253583;23;20008;-73
2021/10/09 18:18:20;;;;;;;4.55;1.90;;;;;;;;;;6253542;23;20016;-73
2021/10/09 18:21:25;;;;;;;4.47;1.60;;;;;;;;;;6253613;23;20460;-75
2021/10/09 18:24:29;;;;;;;4.93;1.63;;;;;;;;;;6233633;23;20024;-76
2021/10/09 18:27:34;;;;;;;2.97;1.98;;;;;;;;;;6253349;23;20020;-76
2021/10/09 18:30:38;;;;;;;4.70;1.73;;;;;;;;;;6234229;23;20016;-75
2021/10/09 18:33:43;;;;;;;5.10;1.98;;;;;;;;;;6252686;23;20004;-76
2021/10/09 18:36:47;;;;;;;6.55;1.50;;;;;;;;;;6245122;23;20020;-76
2021/10/09 18:39:52;;;;;;;3.30;1.63;;;;;;;;;;6251490;23;20012;-75
2021/10/09 18:42:56;;;;;;;2.70;1.55;;;;;;;;;;6252864;23;20016;-75
2021/10/09 18:46:01;;;;;;;3.65;1.92;;;;;;;;;;6252531;23;20008;-75
2021/10/09 18:49:05;;;;;;;3.85;1.50;;;;;;;;;;6234487;23;20012;-75
2021/10/09 18:52:09;;;;;;;3.08;1.60;;;;;;;;;;6253389;23;20016;-73
2021/10/09 18:55:14;;;;;;;6.30;1.55;;;;;;;;;;6253001;23;20008;-73
2021/10/09 18:58:19;;;;;;;5.25;2.20;;;;;;;;;;6252828;23;20012;-74
2021/10/09 19:01:26;;;;;;;3.33;1.55;;;;;;;;;;6253278;23;20008;-74
2021/10/09 19:04:30;;;;;;;10.88;3.45;;;;;;;;;;6253065;23;20015;-73
2021/10/09 19:07:35;;;;;;;7.38;2.90;;;;;;;;;;6253167;23;20064;-73
2021/10/09 19:10:39;;;;;;;26.05;12.73;;;;;;;;;;6253299;23;20016;-72
2021/10/09 19:13:43;;;;;;;4.78;2.20;;;;;;;;;;6253420;23;20019;-72
2021/10/09 19:16:48;;;;;;;3.42;2.00;;;;;;;;;;6253212;23;20068;-73
2021/10/09 19:19:52;;;;;;;2.25;1.40;;;;;;;;;;6253091;23;20012;-73
2021/10/09 19:22:58;;;;;;;8.63;2.40;;;;;;;;;;6253309;23;20016;-73
2021/10/09 19:26:02;;;;;;;4.38;2.00;;;;;;;;;;6227051;23;20016;-72
2021/10/09 19:29:06;;;;;;;3.45;1.98;;;;;;;;;;6234600;23;20016;-73
2021/10/09 19:32:12;;;;;;;10.05;4.35;;;;;;;;;;6253149;23;20016;-71
2021/10/09 19:35:29;;;;;;;16.15;7.07;;;;;;;;;;6250943;23;20019;-74
2021/10/09 19:38:33;;;;;;;3.63;2.15;;;;;;;;;;6234573;23;20019;-74
2021/10/09 19:41:38;;;;;;;6.82;3.45;;;;;;;;;;6252749;23;20334;-74
2021/10/09 19:44:43;;;;;;;5.18;2.10;;;;;;;;;;6234535;23;20016;-74
2021/10/09 19:47:50;;;;;;;6.40;2.47;;;;;;;;;;6253179;23;20008;-73
2021/10/09 19:50:59;;;;;;;7.65;2.50;;;;;;;;;;6252840;23;20012;-73
2021/10/09 19:54:05;;;;;;;6.75;2.25;;;;;;;;;;6235725;23;20012;-74
2021/10/09 19:57:10;;;;;;;5.72;1.75;;;;;;;;;;6253859;23;20087;-73
2021/10/09 20:00:15;;;;;;;4.53;1.65;;;;;;;;;;6255028;23;20008;-73
2021/10/09 20:03:19;;;;;;;9.07;1.83;;;;;;;;;;6254906;23;20016;-74
2021/10/09 20:06:27;;;;;;;8.50;3.78;;;;;;;;;;6255633;23;20424;-74
2021/10/09 20:09:40;;;;;;;3.55;1.48;;;;;;;;;;6236252;23;20020;-74
2021/10/09 20:12:45;;;;;;;5.43;2.30;;;;;;;;;;6254617;23;20012;-74
2021/10/09 20:15:50;;;;;;;2.70;1.60;;;;;;;;;;6254714;23;20012;-73
2021/10/09 20:18:54;;;;;;;4.57;1.30;;;;;;;;;;6235832;23;20011;-74
2021/10/09 20:22:05;;;;;;;4.55;1.60;;;;;;;;;;6254554;23;20437;-74
2021/10/09 20:25:10;;;;;;;4.18;2.20;;;;;;;;;;6250512;23;20020;-74
2021/10/09 20:28:14;;;;;;;3.50;1.52;;;;;;;;;;6254487;23;20016;-74
2021/10/09 20:31:18;;;;;;;6.45;2.28;;;;;;;;;;6254604;23;20016;-74
2021/10/09 20:34:23;;;;;;;5.93;1.75;;;;;;;;;;6254577;23;20004;-74
2021/10/09 20:37:28;;;;;;;6.60;1.80;;;;;;;;;;6254264;23;20012;-74
2021/10/09 20:40:32;;;;;;;6.13;1.95;;;;;;;;;;6254314;23;20024;-74
2021/10/09 20:43:37;;;;;;;9.18;3.40;;;;;;;;;;6254505;23;20020;-74
2021/10/09 20:46:41;;;;;;;4.63;1.88;;;;;;;;;;6254342;23;20321;-74
2021/10/09 20:49:46;;;;;;;5.18;1.33;;;;;;;;;;6235521;23;20016;-74
2021/10/09 20:52:50;;;;;;;6.85;2.97;;;;;;;;;;6254695;23;20437;-74
2021/10/09 20:55:57;;;;;;;7.65;2.30;;;;;;;;;;6254351;23;20012;-74
2021/10/09 20:59:01;;;;;;;5.30;1.95;;;;;;;;;;6252407;23;20096;-74
2021/10/09 21:02:06;;;;;;;7.03;1.63;;;;;;;;;;6253266;23;20016;-74
2021/10/09 21:05:10;;;;;;;4.82;1.65;;;;;;;;;;6218129;23;20012;-74
2021/10/09 21:08:16;;;;;;;3.80;1.42;;;;;;;;;;6253613;23;20096;-74